sensor_id;sensor_type;location;lat;lon;timestamp;P1;durP1;ratioP1;P2;durP2;ratioP2
6832;SDS011;3454;42.654;23.378;2023-05-07T00:01:04;4.27;;;3.63;;
6832;SDS011;3454;42.654;23.378;2023-05-07T00:03:31;5.40;;;3.47;;
6832;SDS011;3454;42.654;23.378;2023-05-07T00:05:57;3.60;;;3.13;;
6832;SDS011;3454;42.654;23.378;2023-05-07T00:08:22;3.60;;;2.97;;
6832;SDS011;3454;42.654;23.378;2023-05-07T00:10:48;4.40;;;3.27;;
6832;SDS011;3454;42.654;23.378;2023-05-07T00:13:13;5.83;;;4.03;;
6832;SDS011;3454;42.654;23.378;2023-05-07T00:15:38;6.80;;;4.77;;
6832;SDS011;3454;42.654;23.378;2023-05-07T00:18:04;5.15;;;4.10;;
6832;SDS011;3454;42.654;23.378;2023-05-07T00:20:29;6.90;;;4.97;;
6832;SDS011;3454;42.654;23.378;2023-05-07T00:22:55;10.45;;;5.00;;
6832;SDS011;3454;42.654;23.378;2023-05-07T00:25:20;5.73;;;4.50;;
6832;SDS011;3454;42.654;23.378;2023-05-07T00:27:46;9.00;;;5.00;;
6832;SDS011;3454;42.654;23.378;2023-05-07T00:30:11;7.30;;;4.53;;
6832;SDS011;3454;42.654;23.378;2023-05-07T00:32:37;7.13;;;5.03;;
6832;SDS011;3454;42.654;23.378;2023-05-07T00:35:03;9.37;;;5.40;;
6832;SDS011;3454;42.654;23.378;2023-05-07T00:37:30;7.03;;;4.43;;
6832;SDS011;3454;42.654;23.378;2023-05-07T00:39:55;7.17;;;4.83;;
6832;SDS011;3454;42.654;23.378;2023-05-07T00:42:21;7.57;;;4.30;;
6832;SDS011;3454;42.654;23.378;2023-05-07T00:44:46;6.57;;;4.13;;
6832;SDS011;3454;42.654;23.378;2023-05-07T00:47:12;4.77;;;3.70;;
6832;SDS011;3454;42.654;23.378;2023-05-07T00:49:39;6.63;;;3.40;;
6832;SDS011;3454;42.654;23.378;2023-05-07T00:52:09;5.80;;;3.23;;
6832;SDS011;3454;42.654;23.378;2023-05-07T00:54:38;9.97;;;4.30;;
6832;SDS011;3454;42.654;23.378;2023-05-07T00:57:05;4.67;;;3.53;;
6832;SDS011;3454;42.654;23.378;2023-05-07T00:59:31;7.03;;;3.47;;
6832;SDS011;3454;42.654;23.378;2023-05-07T01:01:58;7.30;;;3.13;;
6832;SDS011;3454;42.654;23.378;2023-05-07T01:04:24;4.60;;;3.10;;
6832;SDS011;3454;42.654;23.378;2023-05-07T01:06:49;5.07;;;3.60;;
6832;SDS011;3454;42.654;23.378;2023-05-07T01:09:16;4.73;;;3.63;;
6832;SDS011;3454;42.654;23.378;2023-05-07T01:11:43;5.20;;;3.23;;
6832;SDS011;3454;42.654;23.378;2023-05-07T01:14:09;4.30;;;3.63;;
6832;SDS011;3454;42.654;23.378;2023-05-07T01:16:35;3.30;;;3.00;;
6832;SDS011;3454;42.654;23.378;2023-05-07T01:19:01;7.50;;;3.47;;
6832;SDS011;3454;42.654;23.378;2023-05-07T01:21:27;5.40;;;3.17;;
6832;SDS011;3454;42.654;23.378;2023-05-07T01:23:59;3.97;;;2.93;;
6832;SDS011;3454;42.654;23.378;2023-05-07T01:26:24;5.77;;;3.50;;
6832;SDS011;3454;42.654;23.378;2023-05-07T01:28:50;4.87;;;4.23;;
6832;SDS011;3454;42.654;23.378;2023-05-07T01:31:15;3.37;;;3.07;;
6832;SDS011;3454;42.654;23.378;2023-05-07T01:33:42;7.80;;;4.07;;
6832;SDS011;3454;42.654;23.378;2023-05-07T01:36:10;3.73;;;3.33;;
6832;SDS011;3454;42.654;23.378;2023-05-07T01:38:37;4.67;;;4.00;;
6832;SDS011;3454;42.654;23.378;2023-05-07T01:41:03;5.07;;;3.80;;
6832;SDS011;3454;42.654;23.378;2023-05-07T01:43:29;3.87;;;3.43;;
6832;SDS011;3454;42.654;23.378;2023-05-07T01:45:55;5.87;;;3.73;;
6832;SDS011;3454;42.654;23.378;2023-05-07T01:48:22;4.83;;;4.13;;
6832;SDS011;3454;42.654;23.378;2023-05-07T01:50:49;4.53;;;4.10;;
6832;SDS011;3454;42.654;23.378;2023-05-07T01:53:16;8.27;;;4.70;;
6832;SDS011;3454;42.654;23.378;2023-05-07T01:55:41;6.53;;;4.90;;
6832;SDS011;3454;42.654;23.378;2023-05-07T01:58:07;6.80;;;5.30;;
6832;SDS011;3454;42.654;23.378;2023-05-07T02:00:32;7.23;;;5.40;;
6832;SDS011;3454;42.654;23.378;2023-05-07T02:02:57;10.23;;;5.47;;
6832;SDS011;3454;42.654;23.378;2023-05-07T02:05:23;6.70;;;4.93;;
6832;SDS011;3454;42.654;23.378;2023-05-07T02:07:49;6.27;;;5.00;;
6832;SDS011;3454;42.654;23.378;2023-05-07T02:10:14;6.97;;;5.30;;
6832;SDS011;3454;42.654;23.378;2023-05-07T02:12:39;6.60;;;5.40;;
6832;SDS011;3454;42.654;23.378;2023-05-07T02:15:05;8.03;;;5.60;;
6832;SDS011;3454;42.654;23.378;2023-05-07T02:17:57;7.73;;;5.40;;
6832;SDS011;3454;42.654;23.378;2023-05-07T02:20:27;7.87;;;5.70;;
6832;SDS011;3454;42.654;23.378;2023-05-07T02:22:53;6.37;;;5.73;;
6832;SDS011;3454;42.654;23.378;2023-05-07T02:25:18;6.40;;;5.57;;
6832;SDS011;3454;42.654;23.378;2023-05-07T02:27:43;9.73;;;5.33;;
6832;SDS011;3454;42.654;23.378;2023-05-07T02:30:09;6.97;;;5.37;;
6832;SDS011;3454;42.654;23.378;2023-05-07T02:32:35;6.17;;;5.57;;
6832;SDS011;3454;42.654;23.378;2023-05-07T02:35:00;8.60;;;6.03;;
6832;SDS011;3454;42.654;23.378;2023-05-07T02:37:26;7.87;;;5.60;;
6832;SDS011;3454;42.654;23.378;2023-05-07T02:39:51;7.17;;;6.20;;
6832;SDS011;3454;42.654;23.378;2023-05-07T02:42:16;7.37;;;5.43;;
6832;SDS011;3454;42.654;23.378;2023-05-07T02:44:42;10.27;;;6.30;;
6832;SDS011;3454;42.654;23.378;2023-05-07T02:47:07;6.50;;;5.90;;
6832;SDS011;3454;42.654;23.378;2023-05-07T02:49:34;6.87;;;5.70;;
6832;SDS011;3454;42.654;23.378;2023-05-07T02:51:59;7.50;;;5.77;;
6832;SDS011;3454;42.654;23.378;2023-05-07T02:54:25;9.07;;;6.63;;
6832;SDS011;3454;42.654;23.378;2023-05-07T02:56:50;8.80;;;6.03;;
6832;SDS011;3454;42.654;23.378;2023-05-07T02:59:16;7.67;;;5.97;;
6832;SDS011;3454;42.654;23.378;2023-05-07T03:01:41;8.43;;;5.93;;
6832;SDS011;3454;42.654;23.378;2023-05-07T03:04:09;8.87;;;6.90;;
6832;SDS011;3454;42.654;23.378;2023-05-07T03:06:35;9.20;;;6.77;;
6832;SDS011;3454;42.654;23.378;2023-05-07T03:09:01;7.37;;;6.43;;
6832;SDS011;3454;42.654;23.378;2023-05-07T03:11:26;10.90;;;6.27;;
6832;SDS011;3454;42.654;23.378;2023-05-07T03:13:52;7.67;;;6.77;;
6832;SDS011;3454;42.654;23.378;2023-05-07T03:16:17;11.90;;;6.80;;
6832;SDS011;3454;42.654;23.378;2023-05-07T03:18:42;9.07;;;6.90;;
6832;SDS011;3454;42.654;23.378;2023-05-07T03:21:08;9.93;;;7.67;;
6832;SDS011;3454;42.654;23.378;2023-05-07T03:23:33;14.17;;;8.07;;
6832;SDS011;3454;42.654;23.378;2023-05-07T03:25:59;11.80;;;7.70;;
6832;SDS011;3454;42.654;23.378;2023-05-07T03:28:24;10.13;;;7.30;;
6832;SDS011;3454;42.654;23.378;2023-05-07T03:30:50;13.37;;;8.53;;
6832;SDS011;3454;42.654;23.378;2023-05-07T03:33:15;10.30;;;7.37;;
6832;SDS011;3454;42.654;23.378;2023-05-07T03:35:41;11.03;;;8.70;;
6832;SDS011;3454;42.654;23.378;2023-05-07T03:38:06;12.37;;;8.67;;
6832;SDS011;3454;42.654;23.378;2023-05-07T03:40:32;12.67;;;8.70;;
6832;SDS011;3454;42.654;23.378;2023-05-07T03:42:58;11.67;;;8.70;;
6832;SDS011;3454;42.654;23.378;2023-05-07T03:45:24;12.03;;;8.57;;
6832;SDS011;3454;42.654;23.378;2023-05-07T03:47:50;12.97;;;9.80;;
6832;SDS011;3454;42.654;23.378;2023-05-07T03:50:16;11.83;;;9.77;;
6832;SDS011;3454;42.654;23.378;2023-05-07T03:52:41;17.27;;;9.20;;
6832;SDS011;3454;42.654;23.378;2023-05-07T03:55:07;11.50;;;8.57;;
6832;SDS011;3454;42.654;23.378;2023-05-07T03:57:32;11.53;;;8.83;;
6832;SDS011;3454;42.654;23.378;2023-05-07T03:59:58;11.13;;;8.67;;
6832;SDS011;3454;42.654;23.378;2023-05-07T04:02:23;11.17;;;8.67;;
6832;SDS011;3454;42.654;23.378;2023-05-07T04:04:49;12.80;;;9.00;;
6832;SDS011;3454;42.654;23.378;2023-05-07T04:07:14;13.67;;;9.00;;
6832;SDS011;3454;42.654;23.378;2023-05-07T04:09:40;12.23;;;9.27;;
6832;SDS011;3454;42.654;23.378;2023-05-07T04:12:05;11.33;;;8.50;;
6832;SDS011;3454;42.654;23.378;2023-05-07T04:14:31;14.47;;;9.10;;
6832;SDS011;3454;42.654;23.378;2023-05-07T04:16:57;13.23;;;9.50;;
6832;SDS011;3454;42.654;23.378;2023-05-07T04:19:26;11.37;;;9.43;;
6832;SDS011;3454;42.654;23.378;2023-05-07T04:21:51;13.47;;;9.40;;
6832;SDS011;3454;42.654;23.378;2023-05-07T04:24:17;13.37;;;9.10;;
6832;SDS011;3454;42.654;23.378;2023-05-07T04:26:42;12.43;;;9.23;;
6832;SDS011;3454;42.654;23.378;2023-05-07T04:29:07;13.17;;;9.33;;
6832;SDS011;3454;42.654;23.378;2023-05-07T04:31:33;13.80;;;9.47;;
6832;SDS011;3454;42.654;23.378;2023-05-07T04:33:58;12.83;;;9.70;;
6832;SDS011;3454;42.654;23.378;2023-05-07T04:36:23;11.37;;;8.97;;
6832;SDS011;3454;42.654;23.378;2023-05-07T04:38:52;13.73;;;9.03;;
6832;SDS011;3454;42.654;23.378;2023-05-07T04:41:18;11.80;;;9.37;;
6832;SDS011;3454;42.654;23.378;2023-05-07T04:43:43;11.83;;;8.87;;
6832;SDS011;3454;42.654;23.378;2023-05-07T04:46:09;16.17;;;9.07;;
6832;SDS011;3454;42.654;23.378;2023-05-07T04:48:35;13.10;;;8.70;;
6832;SDS011;3454;42.654;23.378;2023-05-07T04:51:00;14.60;;;9.23;;
6832;SDS011;3454;42.654;23.378;2023-05-07T04:53:25;13.40;;;8.53;;
6832;SDS011;3454;42.654;23.378;2023-05-07T04:55:57;13.90;;;9.33;;
6832;SDS011;3454;42.654;23.378;2023-05-07T04:58:23;14.27;;;10.43;;
6832;SDS011;3454;42.654;23.378;2023-05-07T05:00:49;13.05;;;9.70;;
6832;SDS011;3454;42.654;23.378;2023-05-07T05:03:14;12.60;;;9.63;;
6832;SDS011;3454;42.654;23.378;2023-05-07T05:05:40;13.33;;;10.30;;
6832;SDS011;3454;42.654;23.378;2023-05-07T05:08:05;16.20;;;11.90;;
6832;SDS011;3454;42.654;23.378;2023-05-07T05:10:31;20.77;;;12.63;;
6832;SDS011;3454;42.654;23.378;2023-05-07T05:12:57;15.98;;;11.90;;
6832;SDS011;3454;42.654;23.378;2023-05-07T05:15:22;16.43;;;11.50;;
6832;SDS011;3454;42.654;23.378;2023-05-07T05:17:47;13.53;;;9.77;;
6832;SDS011;3454;42.654;23.378;2023-05-07T05:20:13;15.37;;;10.20;;
6832;SDS011;3454;42.654;23.378;2023-05-07T05:22:39;14.48;;;10.00;;
6832;SDS011;3454;42.654;23.378;2023-05-07T05:25:04;12.50;;;9.40;;
6832;SDS011;3454;42.654;23.378;2023-05-07T05:27:30;16.63;;;10.10;;
6832;SDS011;3454;42.654;23.378;2023-05-07T05:29:55;14.27;;;9.93;;
6832;SDS011;3454;42.654;23.378;2023-05-07T05:32:21;14.13;;;10.37;;
6832;SDS011;3454;42.654;23.378;2023-05-07T05:34:47;13.02;;;9.95;;
6832;SDS011;3454;42.654;23.378;2023-05-07T05:37:12;15.27;;;9.83;;
6832;SDS011;3454;42.654;23.378;2023-05-07T05:39:38;10.90;;;8.63;;
6832;SDS011;3454;42.654;23.378;2023-05-07T05:42:03;12.07;;;9.02;;
6832;SDS011;3454;42.654;23.378;2023-05-07T05:44:29;15.18;;;9.90;;
6832;SDS011;3454;42.654;23.378;2023-05-07T05:46:54;9.83;;;8.60;;
6832;SDS011;3454;42.654;23.378;2023-05-07T05:49:20;12.60;;;9.73;;
6832;SDS011;3454;42.654;23.378;2023-05-07T05:51:47;10.57;;;8.43;;
6832;SDS011;3454;42.654;23.378;2023-05-07T05:54:12;13.13;;;10.13;;
6832;SDS011;3454;42.654;23.378;2023-05-07T05:56:38;12.60;;;9.27;;
6832;SDS011;3454;42.654;23.378;2023-05-07T05:59:03;13.10;;;10.10;;
6832;SDS011;3454;42.654;23.378;2023-05-07T06:01:29;14.00;;;9.37;;
6832;SDS011;3454;42.654;23.378;2023-05-07T06:03:54;15.23;;;9.57;;
6832;SDS011;3454;42.654;23.378;2023-05-07T06:06:19;12.40;;;8.85;;
6832;SDS011;3454;42.654;23.378;2023-05-07T06:08:45;19.80;;;10.20;;
6832;SDS011;3454;42.654;23.378;2023-05-07T06:11:10;11.43;;;9.00;;
6832;SDS011;3454;42.654;23.378;2023-05-07T06:13:36;15.63;;;9.85;;
6832;SDS011;3454;42.654;23.378;2023-05-07T06:16:01;12.02;;;8.55;;
6832;SDS011;3454;42.654;23.378;2023-05-07T06:18:27;12.43;;;9.55;;
6832;SDS011;3454;42.654;23.378;2023-05-07T06:20:52;12.10;;;9.05;;
6832;SDS011;3454;42.654;23.378;2023-05-07T06:23:19;14.10;;;9.57;;
6832;SDS011;3454;42.654;23.378;2023-05-07T06:25:48;11.75;;;8.68;;
6832;SDS011;3454;42.654;23.378;2023-05-07T06:28:15;15.27;;;11.40;;
6832;SDS011;3454;42.654;23.378;2023-05-07T06:30:40;14.35;;;9.20;;
6832;SDS011;3454;42.654;23.378;2023-05-07T06:33:06;11.68;;;8.45;;
6832;SDS011;3454;42.654;23.378;2023-05-07T06:35:31;11.02;;;8.30;;
6832;SDS011;3454;42.654;23.378;2023-05-07T06:37:57;12.90;;;8.93;;
6832;SDS011;3454;42.654;23.378;2023-05-07T06:40:22;12.23;;;9.45;;
6832;SDS011;3454;42.654;23.378;2023-05-07T06:42:48;10.93;;;8.70;;
6832;SDS011;3454;42.654;23.378;2023-05-07T06:45:13;11.38;;;8.48;;
6832;SDS011;3454;42.654;23.378;2023-05-07T06:47:38;12.10;;;8.25;;
6832;SDS011;3454;42.654;23.378;2023-05-07T06:50:04;10.32;;;8.02;;
6832;SDS011;3454;42.654;23.378;2023-05-07T06:52:30;11.63;;;8.23;;
6832;SDS011;3454;42.654;23.378;2023-05-07T06:54:56;13.35;;;8.05;;
6832;SDS011;3454;42.654;23.378;2023-05-07T06:57:21;9.95;;;7.75;;
6832;SDS011;3454;42.654;23.378;2023-05-07T06:59:46;12.13;;;8.15;;
6832;SDS011;3454;42.654;23.378;2023-05-07T07:02:12;11.90;;;8.73;;
6832;SDS011;3454;42.654;23.378;2023-05-07T07:04:38;10.48;;;8.57;;
6832;SDS011;3454;42.654;23.378;2023-05-07T07:07:03;11.50;;;8.43;;
6832;SDS011;3454;42.654;23.378;2023-05-07T07:09:28;12.00;;;8.40;;
6832;SDS011;3454;42.654;23.378;2023-05-07T07:11:54;13.00;;;8.32;;
6832;SDS011;3454;42.654;23.378;2023-05-07T07:14:19;11.15;;;8.80;;
6832;SDS011;3454;42.654;23.378;2023-05-07T07:16:45;18.90;;;9.20;;
6832;SDS011;3454;42.654;23.378;2023-05-07T07:19:19;12.95;;;8.65;;
6832;SDS011;3454;42.654;23.378;2023-05-07T07:21:45;11.25;;;7.10;;
6832;SDS011;3454;42.654;23.378;2023-05-07T07:24:11;8.32;;;7.40;;
6832;SDS011;3454;42.654;23.378;2023-05-07T07:26:36;9.75;;;7.45;;
6832;SDS011;3454;42.654;23.378;2023-05-07T07:29:02;10.52;;;8.25;;
6832;SDS011;3454;42.654;23.378;2023-05-07T07:31:27;11.30;;;8.25;;
6832;SDS011;3454;42.654;23.378;2023-05-07T07:33:53;13.02;;;7.85;;
6832;SDS011;3454;42.654;23.378;2023-05-07T07:36:18;9.38;;;7.65;;
6832;SDS011;3454;42.654;23.378;2023-05-07T07:38:43;12.25;;;8.80;;
6832;SDS011;3454;42.654;23.378;2023-05-07T07:41:09;11.15;;;8.00;;
6832;SDS011;3454;42.654;23.378;2023-05-07T07:43:34;13.05;;;9.07;;
6832;SDS011;3454;42.654;23.378;2023-05-07T07:46:00;12.13;;;7.00;;
6832;SDS011;3454;42.654;23.378;2023-05-07T07:48:26;10.50;;;8.40;;
6832;SDS011;3454;42.654;23.378;2023-05-07T07:50:51;14.57;;;7.78;;
6832;SDS011;3454;42.654;23.378;2023-05-07T07:53:17;12.00;;;7.68;;
6832;SDS011;3454;42.654;23.378;2023-05-07T07:55:42;11.30;;;7.90;;
6832;SDS011;3454;42.654;23.378;2023-05-07T07:58:08;11.10;;;6.97;;
6832;SDS011;3454;42.654;23.378;2023-05-07T08:00:33;13.18;;;7.57;;
6832;SDS011;3454;42.654;23.378;2023-05-07T08:02:59;11.57;;;6.72;;
6832;SDS011;3454;42.654;23.378;2023-05-07T08:05:25;9.48;;;7.13;;
6832;SDS011;3454;42.654;23.378;2023-05-07T08:07:50;10.70;;;6.97;;
6832;SDS011;3454;42.654;23.378;2023-05-07T08:10:17;8.80;;;6.63;;
6832;SDS011;3454;42.654;23.378;2023-05-07T08:12:46;10.60;;;8.05;;
6832;SDS011;3454;42.654;23.378;2023-05-07T08:15:15;12.65;;;8.38;;
6832;SDS011;3454;42.654;23.378;2023-05-07T08:17:41;11.95;;;8.32;;
6832;SDS011;3454;42.654;23.378;2023-05-07T08:20:06;10.60;;;7.38;;
6832;SDS011;3454;42.654;23.378;2023-05-07T08:22:33;9.13;;;7.13;;
6832;SDS011;3454;42.654;23.378;2023-05-07T08:24:59;9.00;;;7.53;;
6832;SDS011;3454;42.654;23.378;2023-05-07T08:27:25;11.52;;;7.65;;
6832;SDS011;3454;42.654;23.378;2023-05-07T08:29:50;9.70;;;7.80;;
6832;SDS011;3454;42.654;23.378;2023-05-07T08:32:16;11.50;;;7.72;;
6832;SDS011;3454;42.654;23.378;2023-05-07T08:34:41;9.70;;;7.88;;
6832;SDS011;3454;42.654;23.378;2023-05-07T08:37:07;9.95;;;7.25;;
6832;SDS011;3454;42.654;23.378;2023-05-07T08:39:32;10.15;;;7.50;;
6832;SDS011;3454;42.654;23.378;2023-05-07T08:41:58;8.65;;;7.47;;
6832;SDS011;3454;42.654;23.378;2023-05-07T08:44:26;10.07;;;7.15;;
6832;SDS011;3454;42.654;23.378;2023-05-07T08:46:56;9.43;;;6.65;;
6832;SDS011;3454;42.654;23.378;2023-05-07T08:49:22;8.85;;;5.68;;
6832;SDS011;3454;42.654;23.378;2023-05-07T08:51:48;6.43;;;5.47;;
6832;SDS011;3454;42.654;23.378;2023-05-07T08:54:15;6.40;;;5.47;;
6832;SDS011;3454;42.654;23.378;2023-05-07T08:56:41;8.63;;;5.90;;
6832;SDS011;3454;42.654;23.378;2023-05-07T08:59:07;6.93;;;5.30;;
6832;SDS011;3454;42.654;23.378;2023-05-07T09:01:32;8.13;;;6.13;;
6832;SDS011;3454;42.654;23.378;2023-05-07T09:04:00;5.72;;;4.13;;
6832;SDS011;3454;42.654;23.378;2023-05-07T09:06:26;5.03;;;4.45;;
6832;SDS011;3454;42.654;23.378;2023-05-07T09:08:52;6.35;;;4.80;;
6832;SDS011;3454;42.654;23.378;2023-05-07T09:11:21;7.13;;;4.85;;
6832;SDS011;3454;42.654;23.378;2023-05-07T09:13:48;4.78;;;3.72;;
6832;SDS011;3454;42.654;23.378;2023-05-07T09:16:19;5.57;;;3.65;;
6832;SDS011;3454;42.654;23.378;2023-05-07T09:18:45;7.55;;;4.32;;
6832;SDS011;3454;42.654;23.378;2023-05-07T09:21:16;6.82;;;3.90;;
6832;SDS011;3454;42.654;23.378;2023-05-07T09:23:42;6.97;;;4.43;;
6832;SDS011;3454;42.654;23.378;2023-05-07T09:26:07;5.60;;;5.00;;
6832;SDS011;3454;42.654;23.378;2023-05-07T09:28:40;6.32;;;5.38;;
6832;SDS011;3454;42.654;23.378;2023-05-07T09:31:09;8.07;;;5.10;;
6832;SDS011;3454;42.654;23.378;2023-05-07T09:33:35;8.73;;;4.25;;
6832;SDS011;3454;42.654;23.378;2023-05-07T09:36:08;8.68;;;4.40;;
6832;SDS011;3454;42.654;23.378;2023-05-07T09:38:35;6.13;;;4.68;;
6832;SDS011;3454;42.654;23.378;2023-05-07T09:41:02;5.40;;;3.92;;
6832;SDS011;3454;42.654;23.378;2023-05-07T09:43:35;7.63;;;4.43;;
6832;SDS011;3454;42.654;23.378;2023-05-07T09:46:03;10.55;;;4.47;;
6832;SDS011;3454;42.654;23.378;2023-05-07T09:48:31;6.57;;;5.95;;
6832;SDS011;3454;42.654;23.378;2023-05-07T09:51:02;6.88;;;3.63;;
6832;SDS011;3454;42.654;23.378;2023-05-07T09:53:34;5.32;;;3.97;;
6832;SDS011;3454;42.654;23.378;2023-05-07T09:55:59;8.98;;;4.00;;
6832;SDS011;3454;42.654;23.378;2023-05-07T09:58:27;4.55;;;3.70;;
6832;SDS011;3454;42.654;23.378;2023-05-07T10:00:53;4.95;;;4.20;;
6832;SDS011;3454;42.654;23.378;2023-05-07T10:03:20;5.00;;;4.28;;
6832;SDS011;3454;42.654;23.378;2023-05-07T10:05:47;4.97;;;4.00;;
6832;SDS011;3454;42.654;23.378;2023-05-07T10:08:14;6.82;;;4.75;;
6832;SDS011;3454;42.654;23.378;2023-05-07T10:10:42;5.82;;;4.10;;
6832;SDS011;3454;42.654;23.378;2023-05-07T10:13:07;6.05;;;3.90;;
6832;SDS011;3454;42.654;23.378;2023-05-07T10:15:35;6.20;;;4.65;;
6832;SDS011;3454;42.654;23.378;2023-05-07T10:18:01;6.07;;;4.90;;
6832;SDS011;3454;42.654;23.378;2023-05-07T10:20:28;3.45;;;3.15;;
6832;SDS011;3454;42.654;23.378;2023-05-07T10:22:54;4.07;;;3.38;;
6832;SDS011;3454;42.654;23.378;2023-05-07T10:25:26;5.47;;;2.85;;
6832;SDS011;3454;42.654;23.378;2023-05-07T10:27:55;4.63;;;3.05;;
6832;SDS011;3454;42.654;23.378;2023-05-07T10:30:44;5.15;;;3.63;;
6832;SDS011;3454;42.654;23.378;2023-05-07T10:33:29;5.35;;;3.63;;
6832;SDS011;3454;42.654;23.378;2023-05-07T10:35:58;7.35;;;4.00;;
6832;SDS011;3454;42.654;23.378;2023-05-07T10:38:26;3.83;;;3.13;;
6832;SDS011;3454;42.654;23.378;2023-05-07T10:40:52;6.60;;;4.53;;
6832;SDS011;3454;42.654;23.378;2023-05-07T10:43:18;4.10;;;3.63;;
6832;SDS011;3454;42.654;23.378;2023-05-07T10:45:44;8.40;;;3.65;;
6832;SDS011;3454;42.654;23.378;2023-05-07T10:51:25;5.20;;;3.40;;
6832;SDS011;3454;42.654;23.378;2023-05-07T10:54:33;5.78;;;3.20;;
6832;SDS011;3454;42.654;23.378;2023-05-07T10:56:40;5.38;;;3.08;;
6832;SDS011;3454;42.654;23.378;2023-05-07T11:01:49;5.32;;;3.90;;
6832;SDS011;3454;42.654;23.378;2023-05-07T11:04:20;4.10;;;3.70;;
6832;SDS011;3454;42.654;23.378;2023-05-07T11:15:01;4.68;;;2.95;;
6832;SDS011;3454;42.654;23.378;2023-05-07T11:17:31;3.85;;;3.45;;
6832;SDS011;3454;42.654;23.378;2023-05-07T11:19:59;4.25;;;3.17;;
6832;SDS011;3454;42.654;23.378;2023-05-07T11:25:05;6.78;;;3.17;;
6832;SDS011;3454;42.654;23.378;2023-05-07T11:27:32;5.65;;;3.08;;
6832;SDS011;3454;42.654;23.378;2023-05-07T11:29:58;4.90;;;3.38;;
6832;SDS011;3454;42.654;23.378;2023-05-07T11:32:26;4.22;;;3.03;;
6832;SDS011;3454;42.654;23.378;2023-05-07T11:34:53;4.15;;;3.42;;
6832;SDS011;3454;42.654;23.378;2023-05-07T11:37:20;4.43;;;4.03;;
6832;SDS011;3454;42.654;23.378;2023-05-07T11:39:47;5.28;;;3.42;;
6832;SDS011;3454;42.654;23.378;2023-05-07T11:42:27;4.95;;;4.18;;
6832;SDS011;3454;42.654;23.378;2023-05-07T11:44:53;5.82;;;3.17;;
6832;SDS011;3454;42.654;23.378;2023-05-07T11:47:19;3.85;;;3.30;;
6832;SDS011;3454;42.654;23.378;2023-05-07T11:49:48;4.82;;;3.78;;
6832;SDS011;3454;42.654;23.378;2023-05-07T11:52:15;5.72;;;3.70;;
6832;SDS011;3454;42.654;23.378;2023-05-07T11:54:44;3.35;;;3.15;;
6832;SDS011;3454;42.654;23.378;2023-05-07T11:57:14;4.72;;;3.75;;
6832;SDS011;3454;42.654;23.378;2023-05-07T11:59:40;5.80;;;3.38;;
6832;SDS011;3454;42.654;23.378;2023-05-07T12:02:06;3.65;;;3.35;;
6832;SDS011;3454;42.654;23.378;2023-05-07T12:04:32;5.88;;;3.35;;
6832;SDS011;3454;42.654;23.378;2023-05-07T12:06:57;4.15;;;3.75;;
6832;SDS011;3454;42.654;23.378;2023-05-07T12:09:23;3.70;;;3.20;;
6832;SDS011;3454;42.654;23.378;2023-05-07T12:11:48;5.18;;;3.95;;
6832;SDS011;3454;42.654;23.378;2023-05-07T12:14:13;5.18;;;3.50;;
6832;SDS011;3454;42.654;23.378;2023-05-07T12:16:41;3.45;;;3.15;;
6832;SDS011;3454;42.654;23.378;2023-05-07T12:19:07;4.85;;;3.58;;
6832;SDS011;3454;42.654;23.378;2023-05-07T12:21:37;7.70;;;3.70;;
6832;SDS011;3454;42.654;23.378;2023-05-07T12:24:03;4.75;;;3.60;;
6832;SDS011;3454;42.654;23.378;2023-05-07T12:26:29;5.30;;;3.88;;
6832;SDS011;3454;42.654;23.378;2023-05-07T12:28:54;4.93;;;3.38;;
6832;SDS011;3454;42.654;23.378;2023-05-07T12:31:20;4.50;;;4.10;;
6832;SDS011;3454;42.654;23.378;2023-05-07T12:33:45;4.25;;;3.55;;
6832;SDS011;3454;42.654;23.378;2023-05-07T12:36:12;3.63;;;3.33;;
6832;SDS011;3454;42.654;23.378;2023-05-07T12:38:38;5.07;;;3.40;;
6832;SDS011;3454;42.654;23.378;2023-05-07T12:41:06;4.90;;;3.20;;
6832;SDS011;3454;42.654;23.378;2023-05-07T12:43:32;3.40;;;3.10;;
6832;SDS011;3454;42.654;23.378;2023-05-07T12:46:03;4.28;;;3.10;;
6832;SDS011;3454;42.654;23.378;2023-05-07T12:48:30;6.35;;;3.40;;
6832;SDS011;3454;42.654;23.378;2023-05-07T12:50:57;3.75;;;3.40;;
6832;SDS011;3454;42.654;23.378;2023-05-07T12:53:25;4.65;;;3.78;;
6832;SDS011;3454;42.654;23.378;2023-05-07T12:55:55;6.60;;;3.92;;
6832;SDS011;3454;42.654;23.378;2023-05-07T12:58:30;5.30;;;3.40;;
6832;SDS011;3454;42.654;23.378;2023-05-07T13:00:58;3.85;;;3.00;;
6832;SDS011;3454;42.654;23.378;2023-05-07T13:03:26;4.18;;;2.75;;
6832;SDS011;3454;42.654;23.378;2023-05-07T13:05:52;3.25;;;2.95;;
6832;SDS011;3454;42.654;23.378;2023-05-07T13:08:51;8.60;;;2.67;;
6832;SDS011;3454;42.654;23.378;2023-05-07T13:11:09;4.03;;;2.58;;
6832;SDS011;3454;42.654;23.378;2023-05-07T13:13:36;3.03;;;2.53;;
6832;SDS011;3454;42.654;23.378;2023-05-07T13:16:02;2.47;;;2.28;;
6832;SDS011;3454;42.654;23.378;2023-05-07T13:18:29;2.67;;;2.10;;
6832;SDS011;3454;42.654;23.378;2023-05-07T13:20:55;4.68;;;2.75;;
6832;SDS011;3454;42.654;23.378;2023-05-07T13:23:21;2.88;;;2.38;;
6832;SDS011;3454;42.654;23.378;2023-05-07T13:25:47;4.70;;;2.92;;
6832;SDS011;3454;42.654;23.378;2023-05-07T13:28:13;5.00;;;2.90;;
6832;SDS011;3454;42.654;23.378;2023-05-07T13:30:39;2.85;;;2.47;;
6832;SDS011;3454;42.654;23.378;2023-05-07T13:33:05;4.40;;;2.83;;
6832;SDS011;3454;42.654;23.378;2023-05-07T13:35:31;3.08;;;2.65;;
6832;SDS011;3454;42.654;23.378;2023-05-07T13:37:57;3.15;;;2.50;;
6832;SDS011;3454;42.654;23.378;2023-05-07T13:40:22;6.40;;;2.90;;
6832;SDS011;3454;42.654;23.378;2023-05-07T13:42:48;5.47;;;2.67;;
6832;SDS011;3454;42.654;23.378;2023-05-07T13:45:14;4.65;;;3.00;;
6832;SDS011;3454;42.654;23.378;2023-05-07T13:47:40;4.82;;;2.83;;
6832;SDS011;3454;42.654;23.378;2023-05-07T13:50:07;3.53;;;2.40;;
6832;SDS011;3454;42.654;23.378;2023-05-07T13:52:33;2.83;;;2.20;;
6832;SDS011;3454;42.654;23.378;2023-05-07T13:54:59;2.92;;;2.35;;
6832;SDS011;3454;42.654;23.378;2023-05-07T13:57:24;4.22;;;2.20;;
6832;SDS011;3454;42.654;23.378;2023-05-07T13:59:50;4.05;;;2.45;;
6832;SDS011;3454;42.654;23.378;2023-05-07T14:02:15;5.15;;;2.47;;
6832;SDS011;3454;42.654;23.378;2023-05-07T14:04:41;3.92;;;2.25;;
6832;SDS011;3454;42.654;23.378;2023-05-07T14:07:06;4.30;;;2.75;;
6832;SDS011;3454;42.654;23.378;2023-05-07T14:09:32;2.60;;;2.30;;
6832;SDS011;3454;42.654;23.378;2023-05-07T14:11:58;5.43;;;2.50;;
6832;SDS011;3454;42.654;23.378;2023-05-07T14:14:24;3.95;;;2.50;;
6832;SDS011;3454;42.654;23.378;2023-05-07T14:16:49;3.08;;;2.47;;
6832;SDS011;3454;42.654;23.378;2023-05-07T14:19:15;2.70;;;2.50;;
6832;SDS011;3454;42.654;23.378;2023-05-07T14:21:41;3.22;;;2.92;;
6832;SDS011;3454;42.654;23.378;2023-05-07T14:24:06;2.60;;;2.20;;
6832;SDS011;3454;42.654;23.378;2023-05-07T14:26:33;3.40;;;2.35;;
6832;SDS011;3454;42.654;23.378;2023-05-07T14:28:59;2.88;;;2.67;;
6832;SDS011;3454;42.654;23.378;2023-05-07T14:31:24;5.80;;;2.22;;
6832;SDS011;3454;42.654;23.378;2023-05-07T14:33:51;4.22;;;2.53;;
6832;SDS011;3454;42.654;23.378;2023-05-07T14:36:17;2.67;;;2.40;;
6832;SDS011;3454;42.654;23.378;2023-05-07T14:38:45;3.30;;;2.80;;
6832;SDS011;3454;42.654;23.378;2023-05-07T14:41:10;2.60;;;2.40;;
6832;SDS011;3454;42.654;23.378;2023-05-07T14:43:36;4.38;;;2.90;;
6832;SDS011;3454;42.654;23.378;2023-05-07T14:46:01;2.78;;;2.42;;
6832;SDS011;3454;42.654;23.378;2023-05-07T14:48:27;4.50;;;2.45;;
6832;SDS011;3454;42.654;23.378;2023-05-07T14:50:52;4.38;;;2.58;;
6832;SDS011;3454;42.654;23.378;2023-05-07T14:53:18;4.13;;;2.30;;
6832;SDS011;3454;42.654;23.378;2023-05-07T14:55:43;3.30;;;2.92;;
6832;SDS011;3454;42.654;23.378;2023-05-07T14:58:10;2.85;;;2.63;;
6832;SDS011;3454;42.654;23.378;2023-05-07T15:00:36;4.20;;;2.40;;
6832;SDS011;3454;42.654;23.378;2023-05-07T15:03:08;2.90;;;2.60;;
6832;SDS011;3454;42.654;23.378;2023-05-07T15:05:34;2.53;;;2.33;;
6832;SDS011;3454;42.654;23.378;2023-05-07T15:08:00;4.45;;;2.75;;